createdAt,value
2018-05-18T00:04:10.648Z,16.7
2018-05-18T00:09:06.068Z,16.4
2018-05-18T00:14:01.203Z,16.5
2018-05-18T00:18:56.480Z,16.6
2018-05-18T00:23:51.871Z,16.3
2018-05-18T00:28:47.145Z,16.6
2018-05-18T00:33:42.906Z,16.7
2018-05-18T00:38:38.302Z,16.5
2018-05-18T00:43:33.944Z,15.8
2018-05-18T00:48:29.510Z,16.5
2018-05-18T00:53:24.740Z,16.4
2018-05-18T00:58:20.105Z,16.7
2018-05-18T01:03:15.227Z,16.5
2018-05-18T01:08:10.342Z,16.4
2018-05-18T01:13:05.785Z,16.1
2018-05-18T01:18:00.507Z,16.3
2018-05-18T01:22:56.171Z,15.9
2018-05-18T01:27:51.305Z,16.1
2018-05-18T01:32:46.486Z,15.6
2018-05-18T01:37:42.149Z,15.4
2018-05-18T01:42:37.551Z,15.9
2018-05-18T01:47:33.023Z,15.9
2018-05-18T01:52:28.715Z,16.3
2018-05-18T01:57:24.114Z,15.7
2018-05-18T02:02:19.226Z,16.2
2018-05-18T02:07:14.197Z,16.3
2018-05-18T02:12:09.469Z,15.8
2018-05-18T02:17:04.577Z,16.2
2018-05-18T02:22:00.086Z,16.3
2018-05-18T02:26:55.699Z,16
2018-05-18T02:31:51.010Z,15.8
2018-05-18T02:36:46.331Z,16
2018-05-18T02:41:41.861Z,15.5
2018-05-18T02:46:37.186Z,15
2018-05-18T02:51:32.704Z,15.7
2018-05-18T02:56:28.273Z,14.7
2018-05-18T03:01:23.271Z,15.9
2018-05-18T03:06:18.703Z,15.3
2018-05-18T03:11:13.481Z,15.7
2018-05-18T03:16:09.124Z,15.5
2018-05-18T03:21:04.279Z,15.1
2018-05-18T03:25:59.791Z,15.1
2018-05-18T03:30:55.157Z,14.9
2018-05-18T03:35:49.566Z,15.2
2018-05-18T03:40:44.383Z,14.3
2018-05-18T03:45:39.942Z,14.9
2018-05-18T03:50:34.948Z,15.2
2018-05-18T03:55:30.035Z,15.3
2018-05-18T04:00:25.610Z,15.4
2018-05-18T04:05:20.549Z,15.5
2018-05-18T04:10:15.636Z,15.2
2018-05-18T04:15:11.062Z,13.9
2018-05-18T04:20:06.232Z,15.1
2018-05-18T04:25:01.355Z,15.5
2018-05-18T04:29:56.934Z,15.3
2018-05-18T04:34:51.905Z,15.3
2018-05-18T04:39:47.029Z,15.3
2018-05-18T04:44:41.856Z,15
2018-05-18T04:49:36.920Z,15.6
2018-05-18T04:54:32.202Z,15.5
2018-05-18T04:59:28.437Z,15.3
2018-05-18T05:04:23.383Z,15.3
2018-05-18T05:09:18.840Z,15.8
2018-05-18T05:14:14.066Z,15.9
2018-05-18T05:19:09.703Z,15.9
2018-05-18T05:24:05.339Z,15.6
2018-05-18T05:29:00.680Z,16
2018-05-18T05:33:56.205Z,15.8
2018-05-18T05:38:52.303Z,16.3
2018-05-18T05:43:47.391Z,16.4
2018-05-18T05:48:41.475Z,16.1
2018-05-18T05:53:36.590Z,16.1
2018-05-18T05:58:31.987Z,16.7
2018-05-18T06:03:27.352Z,16.5
2018-05-18T06:08:22.008Z,16.2
2018-05-18T06:13:17.304Z,16.1
2018-05-18T06:18:12.148Z,17.1
2018-05-18T06:23:07.756Z,17.1
2018-05-18T06:28:02.988Z,16.9
2018-05-18T06:32:58.574Z,17.6
2018-05-18T06:37:53.926Z,17.7
2018-05-18T06:42:49.262Z,17.7
2018-05-18T06:47:44.708Z,17.4
2018-05-18T06:52:39.840Z,17.9
2018-05-18T06:57:34.951Z,17.9
2018-05-18T07:02:30.417Z,17.9
2018-05-18T07:07:25.949Z,18.3
2018-05-18T07:12:21.581Z,18
2018-05-18T07:17:16.377Z,18.5
2018-05-18T07:22:10.905Z,18.3
2018-05-18T07:27:06.296Z,19
2018-05-18T07:32:00.776Z,19.2
2018-05-18T07:36:55.126Z,18.6
2018-05-18T07:41:49.721Z,19.1
2018-05-18T07:46:45.170Z,19.8
2018-05-18T07:51:40.788Z,18.9
2018-05-18T07:56:36.391Z,20.1
2018-05-18T08:01:31.838Z,20.1
2018-05-18T08:06:26.958Z,19.8
2018-05-18T08:11:22.774Z,20.4
2018-05-18T08:16:17.864Z,20.4
2018-05-18T08:21:13.179Z,20.5
2018-05-18T08:26:08.691Z,20.2
2018-05-18T08:31:03.915Z,20.1
2018-05-18T08:35:59.013Z,20.9
2018-05-18T08:40:54.027Z,20.9
2018-05-18T08:45:48.994Z,20.3
2018-05-18T08:50:44.822Z,20.9
2018-05-18T08:55:39.907Z,21.5
2018-05-18T09:00:35.335Z,21.6
2018-05-18T09:05:30.441Z,21.8
2018-05-18T09:10:26.155Z,21.5
2018-05-18T09:15:21.366Z,21.9
2018-05-18T09:20:17.049Z,22
2018-05-18T09:25:12.180Z,21.9
2018-05-18T09:30:07.892Z,22.1
2018-05-18T09:35:03.559Z,22.8
2018-05-18T09:39:58.995Z,22.1
2018-05-18T09:44:53.681Z,22.8
2018-05-18T09:49:49.075Z,23.3
2018-05-18T09:54:45.082Z,23.6
2018-05-18T09:59:40.731Z,24.2
2018-05-18T10:04:36.748Z,24.1
2018-05-18T10:09:32.454Z,24.5
2018-05-18T10:14:27.941Z,24.7
2018-05-18T10:19:23.475Z,24.5
2018-05-18T10:24:18.597Z,24.8
2018-05-18T10:29:13.919Z,24.2
2018-05-18T10:34:09.582Z,24.5
2018-05-18T10:39:04.860Z,24.6
2018-05-18T10:44:00.423Z,24.8
2018-05-18T10:48:55.871Z,24.9
2018-05-18T10:53:51.882Z,25.1
2018-05-18T10:58:47.423Z,25.4
2018-05-18T11:03:42.706Z,24.2
2018-05-18T11:08:37.863Z,25
2018-05-18T11:13:33.453Z,25.3
2018-05-18T11:18:29.486Z,25.9
2018-05-18T11:23:24.441Z,25
2018-05-18T11:28:20.186Z,24.8
2018-05-18T11:33:15.041Z,25.1
2018-05-18T11:38:09.993Z,24.8
2018-05-18T11:43:05.732Z,24
2018-05-18T11:48:00.997Z,24.5
2018-05-18T11:52:56.156Z,25.5
2018-05-18T11:57:51.847Z,25.5
2018-05-18T12:02:46.875Z,25
2018-05-18T12:07:42.003Z,25
2018-05-18T12:12:37.835Z,25.2
2018-05-18T12:17:32.861Z,25
2018-05-18T12:22:29.064Z,26
2018-05-18T12:27:24.428Z,25.9
2018-05-18T12:32:19.976Z,26.1
2018-05-18T12:37:15.246Z,24.9
2018-05-18T12:42:10.097Z,24.9
2018-05-18T12:47:05.868Z,25.7
2018-05-18T12:52:01.105Z,24.8
2018-05-18T12:56:56.546Z,25.7
2018-05-18T13:01:51.991Z,25.5
2018-05-18T13:06:47.258Z,25.7
2018-05-18T13:11:42.897Z,25.6
2018-05-18T13:16:37.888Z,25.3
2018-05-18T13:21:33.261Z,25.3
2018-05-18T13:26:28.209Z,25.5
2018-05-18T13:31:24.083Z,24.5
2018-05-18T13:36:18.752Z,25.7
2018-05-18T13:41:14.632Z,25.9
2018-05-18T13:46:10.487Z,26.6
2018-05-18T13:51:05.598Z,26
2018-05-18T13:56:00.259Z,25.2
2018-05-18T14:00:55.645Z,25.3
2018-05-18T14:05:50.628Z,25.3
2018-05-18T14:10:45.757Z,24.7
2018-05-18T14:15:41.304Z,25
2018-05-18T14:20:36.371Z,25.3
2018-05-18T14:25:32.023Z,24.8
2018-05-18T14:30:27.085Z,24.2
2018-05-18T14:35:22.577Z,24.6
2018-05-18T14:40:17.841Z,24.6
2018-05-18T14:45:13.106Z,24.5
2018-05-18T14:50:08.954Z,24.2
2018-05-18T14:55:04.240Z,23.9
2018-05-18T14:59:59.884Z,24.1
2018-05-18T15:04:55.434Z,24.3
2018-05-18T15:09:51.166Z,24.3
2018-05-18T15:14:46.696Z,24.3
2018-05-18T15:19:41.959Z,24.2
2018-05-18T15:24:37.495Z,24.2
2018-05-18T15:29:32.520Z,24.1
2018-05-18T15:34:27.987Z,24
2018-05-18T15:39:23.684Z,24
2018-05-18T15:44:19.419Z,23.9
2018-05-18T15:49:15.146Z,23.9
2018-05-18T15:54:10.052Z,22.9
2018-05-18T15:59:05.458Z,23.8
2018-05-18T16:04:00.948Z,23.4
2018-05-18T16:08:56.504Z,23.6
2018-05-18T16:13:51.982Z,23
2018-05-18T16:18:47.066Z,22.7
2018-05-18T16:23:42.286Z,22.8
2018-05-18T16:28:37.545Z,22.3
2018-05-18T16:33:32.617Z,22.5
2018-05-18T16:38:27.726Z,21.8
2018-05-18T16:43:23.188Z,22.4
2018-05-18T16:48:18.592Z,21.8
2018-05-18T16:53:13.716Z,22.3
2018-05-18T16:58:09.270Z,21
2018-05-18T17:03:04.927Z,21.4
2018-05-18T17:08:00.096Z,22
2018-05-18T17:12:55.570Z,21.9
2018-05-18T17:17:50.293Z,21.4
2018-05-18T17:22:45.786Z,21.4
2018-05-18T17:27:40.899Z,21.3
2018-05-18T17:32:35.811Z,21.7
2018-05-18T17:37:31.288Z,21.6
2018-05-18T17:42:25.852Z,21.6
2018-05-18T17:47:21.497Z,21.2
2018-05-18T17:52:16.904Z,21.5
2018-05-18T17:57:12.456Z,21.5
2018-05-18T18:02:07.849Z,21.4
2018-05-18T18:07:03.713Z,21.4
2018-05-18T18:11:58.762Z,21.4
2018-05-18T18:16:54.296Z,21.3
2018-05-18T18:21:49.677Z,20.1
2018-05-18T18:26:45.006Z,21.2
2018-05-18T18:31:39.654Z,21
2018-05-18T18:36:35.634Z,21
2018-05-18T18:41:31.073Z,20.7
2018-05-18T18:46:26.319Z,20.9
2018-05-18T18:51:21.882Z,21
2018-05-18T18:56:17.108Z,20.9
2018-05-18T19:01:12.357Z,21
2018-05-18T19:06:07.578Z,20.5
2018-05-18T19:11:02.883Z,20.9
2018-05-18T19:15:58.112Z,20.9
2018-05-18T19:20:53.336Z,20
2018-05-18T19:25:49.130Z,21
2018-05-18T19:30:44.549Z,20.6
2018-05-18T19:35:40.165Z,20.9
2018-05-18T19:40:35.592Z,20.8
2018-05-18T19:45:31.167Z,20.8
2018-05-18T19:50:26.578Z,20.4
2018-05-18T19:55:22.285Z,20.7
2018-05-18T20:00:17.170Z,20.3
2018-05-18T20:05:12.242Z,20.5
2018-05-18T20:10:07.535Z,20.7
2018-05-18T20:15:03.226Z,20.3
2018-05-18T20:19:58.331Z,20.6
2018-05-18T20:24:53.500Z,20.2
2018-05-18T20:29:48.479Z,20.5
2018-05-18T20:34:44.013Z,19.9
2018-05-18T20:39:39.140Z,20.2
2018-05-18T20:44:34.071Z,20.2
2018-05-18T20:49:29.656Z,20.2
2018-05-18T20:54:25.213Z,20.1
2018-05-18T20:59:20.410Z,20.1
2018-05-18T21:04:15.878Z,19.9
2018-05-18T21:09:11.380Z,19.7
2018-05-18T21:14:06.650Z,19.9
2018-05-18T21:19:02.613Z,19.8
2018-05-18T21:23:57.687Z,19.8
2018-05-18T21:28:53.174Z,19.5
2018-05-18T21:33:48.501Z,19.7
2018-05-18T21:38:43.577Z,19.6
2018-05-18T21:43:39.387Z,19.6
2018-05-18T21:48:34.774Z,19.6
2018-05-18T21:53:29.685Z,19.4
2018-05-18T21:58:25.276Z,19
2018-05-18T22:03:21.008Z,19.3
2018-05-18T22:08:16.445Z,19.4
2018-05-18T22:13:12.159Z,19.3
2018-05-18T22:18:07.651Z,19.4
2018-05-18T22:23:03.378Z,19.4
2018-05-18T22:27:58.829Z,19
2018-05-18T22:32:53.996Z,19.4
2018-05-18T22:37:50.053Z,18.9
2018-05-18T22:42:45.865Z,19.5
2018-05-18T22:47:41.557Z,19.5
2018-05-18T22:52:36.849Z,19.5
2018-05-18T22:57:32.426Z,19.3
2018-05-18T23:02:28.065Z,19.3
2018-05-18T23:07:23.534Z,19.3
2018-05-18T23:12:19.330Z,19.4
2018-05-18T23:17:14.881Z,19.2
2018-05-18T23:22:10.257Z,19.3
2018-05-18T23:27:05.763Z,18.9
2018-05-18T23:32:01.470Z,18.9
2018-05-18T23:36:56.768Z,19.3
2018-05-18T23:41:52.295Z,19.3
2018-05-18T23:46:47.873Z,19.2
2018-05-18T23:51:43.417Z,18.8
2018-05-18T23:56:39.141Z,19.2
